Time;durP1;ratioP1;P1;durP2;ratioP2;P2;SDS_P1;SDS_P2;PMS_P1;PMS_P2;Temp;Humidity;BMP_temperature;BMP_pressure;BME280_temperature;BME280_humidity;BME280_pressure;Samples;Min_cycle;Max_cycle;Signal;HPM_P1;HPM_P2
2024/03/28 06:02:45;;;;;;;;;;;;;;;;;;4992646;28;19933;-44
2024/03/28 06:05:11;;;;;;;;;;;;;;;;;;4994534;28;20318;-43
2024/03/28 06:07:37;;;;;;;;;;;;;;;;;;4994787;28;19921;-42
2024/03/28 06:10:03;;;;;;;;;;;;;;;;;;4994029;28;20402;-43
2024/03/28 06:12:29;;;;;;;;;;;;;;;;;;4994419;28;20004;-41
2024/03/28 06:14:55;;;;;;;;;;;;;;;;;;4994301;28;19917;-43
2024/03/28 06:17:21;;;;;;;;;;;;;;;;;;4994479;28;19923;-44
2024/03/28 06:19:47;;;;;;;;;;;;;;;;;;4994156;28;19918;-42
2024/03/28 06:22:12;;;;;;;;;;;;;;;;;;4994508;28;19910;-42
2024/03/28 06:24:38;;;;;;;;;;;;;;;;;;4994477;28;19906;-45
2024/03/28 06:27:05;;;;;;;;;;;;;;;;;;4994692;28;19910;-44
2024/03/28 06:29:39;;;;;;;;;;;;;;;;;;4994214;28;19949;-44
2024/03/28 06:32:13;;;;;;;;;;;;;;;;;;4994220;28;19937;-41
2024/03/28 06:34:39;;;;;;;;;;;;;;;;;;4993738;28;19968;-41
2024/03/28 06:37:05;;;;;;;;;;;;;;;;;;4994489;28;19910;-41
2024/03/28 06:39:31;;;;;;;;;;;;;;;;;;4993969;28;19925;-41
2024/03/28 06:41:57;;;;;;;;;;;;;;;;;;4994082;28;19914;-42
2024/03/28 06:44:23;;;;;;;;;;;;;;;;;;4994036;28;20008;-42
2024/03/28 06:46:49;;;;;;;;;;;;;;;;;;4993943;28;19910;-41
2024/03/28 06:49:14;;;;;;;;;;;;;;;;;;4994116;28;19910;-41
2024/03/28 06:51:40;;;;;;;;;;;;;;;;;;4993575;28;20395;-42
2024/03/28 06:54:06;;;;;;;;;;;;;;;;;;4994371;28;19910;-42
2024/03/28 06:56:32;;;;;;;;;;;;;;;;;;4993712;28;19910;-42
2024/03/28 06:58:58;;;;;;;;;;;;;;;;;;4993565;28;19917;-42
2024/03/28 07:01:24;;;;;;;;;;;;;;;;;;4992965;28;20302;-41
2024/03/28 07:03:50;;;;;;;;;;;;;;;;;;4992839;28;19976;-43
2024/03/28 07:06:16;;;;;;;;;;;;;;;;;;4992978;28;20009;-41
2024/03/28 07:08:41;;;;;;;;;;;;;;;;;;4993462;28;19916;-42
2024/03/28 07:11:08;;;;;;;;;;;;;;;;;;4993373;28;20346;-42
2024/03/28 07:13:34;;;;;;;;;;;;;;;;;;4993659;28;19946;-43
2024/03/28 07:16:00;;;;;;;;;;;;;;;;;;4993239;28;20414;-43
2024/03/28 07:18:26;;;;;;;;;;;;;;;;;;4993490;28;19916;-41
2024/03/28 07:20:52;;;;;;;;;;;;;;;;;;4992963;28;20380;-42
2024/03/28 07:23:18;;;;;;;;;;;;;;;;;;4993059;28;19914;-42
2024/03/28 07:25:43;;;;;;;;;;;;;;;;;;4993061;28;19952;-42
2024/03/28 07:28:09;;;;;;;;;;;;;;;;;;4993380;28;19909;-41
2024/03/28 07:30:35;;;;;;;;;;;;;;;;;;4992970;28;19914;-42
2024/03/28 07:33:01;;;;;;;;;;;;;;;;;;4989487;28;19914;-43
2024/03/28 07:35:27;;;;;;;;;;;;;;;;;;4993517;28;20040;-42
2024/03/28 07:37:53;;;;;;;;;;;;;;;;;;4992743;28;20299;-42
2024/03/28 07:40:19;;;;;;;;;;;;;;;;;;5001814;28;19936;-41
2024/03/28 07:42:45;;;;;;;;;;;;;;;;;;4988345;28;20509;-42
2024/03/28 07:45:11;;;;;;;;;;;;;;;;;;4974168;28;19910;-42
2024/03/28 07:47:37;;;;;;;;;;;;;;;;;;4993337;28;19916;-42
2024/03/28 07:50:03;;;;;;;;;;;;;;;;;;4992899;28;20326;-43
2024/03/28 07:52:29;;;;;;;;;;;;;;;;;;4993049;28;20008;-43
2024/03/28 07:54:55;;;;;;;;;;;;;;;;;;4993460;28;19938;-44
2024/03/28 07:57:21;;;;;;;;;;;;;;;;;;5008916;28;19913;-44
2024/03/28 07:59:46;;;;;;;;;;;;;;;;;;4995511;28;19957;-44
2024/03/28 08:02:12;;;;;;;;;;;;;;;;;;4992664;28;19929;-42
2024/03/28 08:04:38;;;;;;;;;;;;;;;;;;4991840;28;19914;-45
2024/03/28 08:07:04;;;;;;;;;;;;;;;;;;4993235;28;19910;-43
2024/03/28 08:09:31;;;;;;;;;;;;;;;;;;4993366;28;19996;-44
2024/03/28 08:11:57;;;;;;;;;;;;;;;;;;4992961;28;20276;-43
2024/03/28 08:14:23;;;;;;;;;;;;;;;;;;4991812;28;20017;-44
2024/03/28 08:16:48;;;;;;;;;;;;;;;;;;4993116;28;19956;-43
2024/03/28 08:19:14;;;;;;;;;;;;;;;;;;4992796;28;19921;-42
2024/03/28 08:21:40;;;;;;;;;;;;;;;;;;4992707;28;19977;-43
2024/03/28 08:24:06;;;;;;;;;;;;;;;;;;4993196;28;19913;-44
2024/03/28 08:26:32;;;;;;;;;;;;;;;;;;4991054;28;20390;-45
2024/03/28 08:28:58;;;;;;;;;;;;;;;;;;4990702;28;19914;-45
2024/03/28 08:31:24;;;;;;;;;;;;;;;;;;4991627;28;20001;-44
2024/03/28 08:33:50;;;;;;;;;;;;;;;;;;4992221;28;19914;-46
2024/03/28 08:36:17;;;;;;;;;;;;;;;;;;4992836;28;20295;-43
2024/03/28 08:38:43;;;;;;;;;;;;;;;;;;4992822;28;19913;-43
2024/03/28 08:41:09;;;;;;;;;;;;;;;;;;4992528;28;19968;-44
2024/03/28 08:43:35;;;;;;;;;;;;;;;;;;4992801;28;20362;-42
2024/03/28 08:46:01;;;;;;;;;;;;;;;;;;4992599;28;19917;-44
2024/03/28 08:48:27;;;;;;;;;;;;;;;;;;4990342;28;20600;-42
2024/03/28 08:50:54;;;;;;;;;;;;;;;;;;4990739;28;19917;-43
2024/03/28 08:53:20;;;;;;;;;;;;;;;;;;4990840;28;20402;-44
2024/03/28 08:55:46;;;;;;;;;;;;;;;;;;4990821;28;19956;-42
2024/03/28 08:58:12;;;;;;;;;;;;;;;;;;4991159;28;19982;-43
2024/03/28 09:00:38;;;;;;;;;;;;;;;;;;4990542;28;19914;-43
2024/03/28 09:03:04;;;;;;;;;;;;;;;;;;4990788;28;19914;-43
2024/03/28 09:05:32;;;;;;;;;;;;;;;;;;4990037;28;19914;-44
2024/03/28 09:07:58;;;;;;;;;;;;;;;;;;4971307;28;20455;-42
2024/03/28 09:10:24;;;;;;;;;;;;;;;;;;4971101;28;19910;-43
2024/03/28 09:12:51;;;;;;;;;;;;;;;;;;4970993;28;19911;-42
2024/03/28 09:15:17;;;;;;;;;;;;;;;;;;4974683;28;20354;-46
2024/03/28 09:17:43;;;;;;;;;;;;;;;;;;4990266;28;20000;-44
2024/03/28 09:20:13;;;;;;;;;;;;;;;;;;4990118;28;19967;-45
2024/03/28 09:22:39;;;;;;;;;;;;;;;;;;4982808;28;20005;-43
2024/03/28 09:25:05;;;;;;;;;;;;;;;;;;4988031;28;20004;-45
2024/03/28 09:27:31;;;;;;;;;;;;;;;;;;4992757;28;19926;-43
2024/03/28 09:29:57;;;;;;;;;;;;;;;;;;4996229;28;19910;-43
2024/03/28 09:32:22;;;;;;;;;;;;;;;;;;4996569;28;20371;-42
2024/03/28 09:34:51;;;;;;;;;;;;;;;;;;4994747;28;19914;-43
2024/03/28 09:37:17;;;;;;;;;;;;;;;;;;4977320;28;20292;-43
2024/03/28 09:39:43;;;;;;;;;;;;;;;;;;4977501;28;19937;-43
2024/03/28 09:42:09;;;;;;;;;;;;;;;;;;4978736;28;19945;-43
2024/03/28 09:44:35;;;;;;;;;;;;;;;;;;4996923;28;19921;-43
2024/03/28 09:47:01;;;;;;;;;;;;;;;;;;4996606;28;19917;-43
2024/03/28 09:49:27;;;;;;;;;;;;;;;;;;4995378;28;19985;-44
2024/03/28 09:51:56;;;;;;;;;;;;;;;;;;4996625;28;19914;-42
2024/03/28 09:54:22;;;;;;;;;;;;;;;;;;4997572;28;19941;-43
2024/03/28 09:56:47;;;;;;;;;;;;;;;;;;4994027;28;20019;-43
2024/03/28 09:59:13;;;;;;;;;;;;;;;;;;4993438;28;19920;-42
2024/03/28 10:01:39;;;;;;;;;;;;;;;;;;4995622;28;19933;-46
2024/03/28 10:04:05;;;;;;;;;;;;;;;;;;4995885;28;19913;-43
2024/03/28 10:06:31;;;;;;;;;;;;;;;;;;4994600;28;19909;-44
2024/03/28 10:08:57;;;;;;;;;;;;;;;;;;4995806;28;20447;-42
2024/03/28 10:11:23;;;;;;;;;;;;;;;;;;4986921;28;20016;-44
2024/03/28 10:13:49;;;;;;;;;;;;;;;;;;4995813;28;19933;-43
2024/03/28 10:16:17;;;;;;;;;;;;;;;;;;4994898;28;20013;-42
2024/03/28 10:18:43;;;;;;;;;;;;;;;;;;4996931;28;20268;-44
2024/03/28 10:21:12;;;;;;;;;;;;;;;;;;4997988;28;19920;-44
2024/03/28 10:23:37;;;;;;;;;;;;;;;;;;4997995;28;20382;-43
2024/03/28 10:26:04;;;;;;;;;;;;;;;;;;4997925;28;19910;-43
2024/03/28 10:28:32;;;;;;;;;;;;;;;;;;4998170;28;20118;-43
2024/03/28 10:30:58;;;;;;;;;;;;;;;;;;4996578;28;19960;-46
2024/03/28 10:33:24;;;;;;;;;;;;;;;;;;4996883;28;19913;-46
2024/03/28 10:35:50;;;;;;;;;;;;;;;;;;4997088;28;19913;-43
2024/03/28 10:38:15;;;;;;;;;;;;;;;;;;4995526;28;20302;-44
2024/03/28 10:40:41;;;;;;;;;;;;;;;;;;4994873;28;19917;-43
2024/03/28 10:43:09;;;;;;;;;;;;;;;;;;4982602;28;19997;-44
2024/03/28 10:45:38;;;;;;;;;;;;;;;;;;4991164;28;19914;-44
2024/03/28 10:48:04;;;;;;;;;;;;;;;;;;4994693;28;20007;-43
2024/03/28 10:50:30;;;;;;;;;;;;;;;;;;4992989;28;20008;-43
2024/03/28 10:52:56;;;;;;;;;;;;;;;;;;4989804;28;20403;-42
2024/03/28 10:55:22;;;;;;;;;;;;;;;;;;4992439;28;19921;-43
2024/03/28 10:57:48;;;;;;;;;;;;;;;;;;4997265;28;20415;-42
2024/03/28 11:00:14;;;;;;;;;;;;;;;;;;4990284;28;19922;-46
2024/03/28 11:02:40;;;;;;;;;;;;;;;;;;4997517;28;20622;-43
2024/03/28 11:05:06;;;;;;;;;;;;;;;;;;4994336;28;19918;-44
2024/03/28 11:07:32;;;;;;;;;;;;;;;;;;4993484;28;19968;-42
2024/03/28 11:09:58;;;;;;;;;;;;;;;;;;4990169;28;20341;-43
2024/03/28 11:12:25;;;;;;;;;;;;;;;;;;4993585;28;19976;-43
2024/03/28 11:14:51;;;;;;;;;;;;;;;;;;4991327;28;19918;-43
2024/03/28 11:17:17;;;;;;;;;;;;;;;;;;4991779;28;20430;-44
2024/03/28 11:19:45;;;;;;;;;;;;;;;;;;4992378;28;19918;-47
2024/03/28 11:22:11;;;;;;;;;;;;;;;;;;4991899;28;19913;-42
2024/03/28 11:24:37;;;;;;;;;;;;;;;;;;4990278;28;19928;-43
2024/03/28 11:27:03;;;;;;;;;;;;;;;;;;4991482;28;19914;-43
2024/03/28 11:29:30;;;;;;;;;;;;;;;;;;4992858;28;19913;-45
2024/03/28 11:31:57;;;;;;;;;;;;;;;;;;4991888;28;20403;-42
2024/03/28 11:34:23;;;;;;;;;;;;;;;;;;4979953;28;19918;-43
2024/03/28 11:36:48;;;;;;;;;;;;;;;;;;4990914;28;19967;-45
2024/03/28 11:39:14;;;;;;;;;;;;;;;;;;5005756;28;20393;-43
2024/03/28 11:41:40;;;;;;;;;;;;;;;;;;4995163;28;19932;-45
2024/03/28 11:44:06;;;;;;;;;;;;;;;;;;4999245;28;20307;-43
2024/03/28 11:46:32;;;;;;;;;;;;;;;;;;4992876;28;20012;-43
2024/03/28 11:48:59;;;;;;;;;;;;;;;;;;4990650;28;20406;-42
2024/03/28 11:51:25;;;;;;;;;;;;;;;;;;4989941;28;19956;-43
2024/03/28 11:53:51;;;;;;;;;;;;;;;;;;4992724;28;19997;-43
2024/03/28 11:56:18;;;;;;;;;;;;;;;;;;4993765;28;20378;-45
2024/03/28 11:58:44;;;;;;;;;;;;;;;;;;4992197;28;20387;-43
2024/03/28 12:01:10;;;;;;;;;;;;;;;;;;4990126;28;19929;-44
2024/03/28 12:03:36;;;;;;;;;;;;;;;;;;4992303;28;19917;-45
2024/03/28 12:06:02;;;;;;;;;;;;;;;;;;4992264;28;20475;-44
2024/03/28 12:08:28;;;;;;;;;;;;;;;;;;4992617;28;19914;-42
2024/03/28 12:10:54;;;;;;;;;;;;;;;;;;4992292;28;19917;-43
2024/03/28 12:13:19;;;;;;;;;;;;;;;;;;4992162;28;19962;-47
2024/03/28 12:15:45;;;;;;;;;;;;;;;;;;4992329;28;19917;-47
2024/03/28 12:18:11;;;;;;;;;;;;;;;;;;4992039;28;20028;-44
2024/03/28 12:20:39;;;;;;;;;;;;;;;;;;4992185;28;19941;-46
2024/03/28 12:23:07;;;;;;;;;;;;;;;;;;4991915;28;20498;-43
2024/03/28 12:25:32;;;;;;;;;;;;;;;;;;4972630;28;19957;-44
2024/03/28 12:27:58;;;;;;;;;;;;;;;;;;4972734;28;20346;-43
2024/03/28 12:30:27;;;;;;;;;;;;;;;;;;4972245;28;19910;-44
2024/03/28 12:32:53;;;;;;;;;;;;;;;;;;4972749;28;19910;-45
2024/03/28 12:35:19;;;;;;;;;;;;;;;;;;4989238;28;20288;-42
2024/03/28 12:37:45;;;;;;;;;;;;;;;;;;4992070;28;19950;-43
2024/03/28 12:40:13;;;;;;;;;;;;;;;;;;4990463;28;19921;-44
2024/03/28 12:42:39;;;;;;;;;;;;;;;;;;4975683;28;19914;-42
2024/03/28 12:45:05;;;;;;;;;;;;;;;;;;4972678;28;19921;-43
2024/03/28 12:47:31;;;;;;;;;;;;;;;;;;4972419;28;19937;-44
2024/03/28 12:49:57;;;;;;;;;;;;;;;;;;4971861;28;19916;-43
2024/03/28 12:52:23;;;;;;;;;;;;;;;;;;4972593;28;19917;-45
2024/03/28 12:54:49;;;;;;;;;;;;;;;;;;4972389;28;19941;-42
2024/03/28 12:57:15;;;;;;;;;;;;;;;;;;4972308;28;19957;-46
2024/03/28 12:59:41;;;;;;;;;;;;;;;;;;4971831;28;19914;-43
2024/03/28 13:02:07;;;;;;;;;;;;;;;;;;4971398;28;20343;-44
2024/03/28 13:04:33;;;;;;;;;;;;;;;;;;4972037;28;19949;-43
2024/03/28 13:06:58;;;;;;;;;;;;;;;;;;4972008;28;19910;-44
2024/03/28 13:09:24;;;;;;;;;;;;;;;;;;4970682;28;19914;-43
2024/03/28 13:11:50;;;;;;;;;;;;;;;;;;4972053;28;19914;-45
2024/03/28 13:14:16;;;;;;;;;;;;;;;;;;4971917;28;20005;-43
2024/03/28 13:16:42;;;;;;;;;;;;;;;;;;4972026;28;20380;-43
2024/03/28 13:19:08;;;;;;;;;;;;;;;;;;4971700;28;19910;-43
2024/03/28 13:21:35;;;;;;;;;;;;;;;;;;4971971;28;19969;-47
2024/03/28 13:24:00;;;;;;;;;;;;;;;;;;4971740;28;19965;-46
2024/03/28 13:26:26;;;;;;;;;;;;;;;;;;4971912;28;20002;-44
2024/03/28 13:28:52;;;;;;;;;;;;;;;;;;4972475;28;19910;-44
2024/03/28 13:31:19;;;;;;;;;;;;;;;;;;4971725;28;19910;-45
2024/03/28 13:33:44;;;;;;;;;;;;;;;;;;4971982;28;19996;-47
2024/03/28 13:36:10;;;;;;;;;;;;;;;;;;4971469;28;20362;-44
2024/03/28 13:38:36;;;;;;;;;;;;;;;;;;4971940;28;19910;-46
2024/03/28 13:41:02;;;;;;;;;;;;;;;;;;4971511;28;20368;-44
2024/03/28 13:43:28;;;;;;;;;;;;;;;;;;4971719;28;19954;-43
2024/03/28 13:45:54;;;;;;;;;;;;;;;;;;4971840;28;19910;-44
2024/03/28 13:48:20;;;;;;;;;;;;;;;;;;4971674;28;20392;-44
2024/03/28 13:50:46;;;;;;;;;;;;;;;;;;4971486;28;19910;-43
2024/03/28 13:53:11;;;;;;;;;;;;;;;;;;4971694;28;20001;-44
2024/03/28 13:55:37;;;;;;;;;;;;;;;;;;4971308;28;19914;-44
2024/03/28 13:58:03;;;;;;;;;;;;;;;;;;4971636;28;19914;-44
2024/03/28 14:00:29;;;;;;;;;;;;;;;;;;4971257;28;19957;-43
2024/03/28 14:02:55;;;;;;;;;;;;;;;;;;4971998;28;19914;-43
2024/03/28 14:05:21;;;;;;;;;;;;;;;;;;4971358;28;20244;-46
2024/03/28 14:07:47;;;;;;;;;;;;;;;;;;4984904;28;19921;-45
2024/03/28 14:10:12;;;;;;;;;;;;;;;;;;4989595;28;20296;-43
2024/03/28 14:12:38;;;;;;;;;;;;;;;;;;4992633;28;20367;-45
2024/03/28 14:15:05;;;;;;;;;;;;;;;;;;4995377;28;19957;-45
2024/03/28 14:17:31;;;;;;;;;;;;;;;;;;4987700;28;20301;-45
2024/03/28 14:19:57;;;;;;;;;;;;;;;;;;4975693;28;20016;-44
2024/03/28 14:22:23;;;;;;;;;;;;;;;;;;4991900;28;19921;-44
2024/03/28 14:24:48;;;;;;;;;;;;;;;;;;4994397;28;19924;-43
2024/03/28 14:27:14;;;;;;;;;;;;;;;;;;4994040;28;19928;-45
2024/03/28 14:29:40;;;;;;;;;;;;;;;;;;4994418;28;19920;-47
2024/03/28 14:32:06;;;;;;;;;;;;;;;;;;4994472;28;20399;-43
2024/03/28 14:34:32;;;;;;;;;;;;;;;;;;4993700;28;19968;-46
2024/03/28 14:36:58;;;;;;;;;;;;;;;;;;4994525;28;19916;-46
2024/03/28 14:39:24;;;;;;;;;;;;;;;;;;4994521;28;20339;-44
2024/03/28 14:41:50;;;;;;;;;;;;;;;;;;4994165;28;19918;-45
2024/03/28 14:44:16;;;;;;;;;;;;;;;;;;4994091;28;19949;-43
2024/03/28 14:46:41;;;;;;;;;;;;;;;;;;4993849;28;19910;-43
2024/03/28 14:49:07;;;;;;;;;;;;;;;;;;4993772;28;19937;-44
2024/03/28 14:51:33;;;;;;;;;;;;;;;;;;4993830;28;19916;-45
2024/03/28 14:53:59;;;;;;;;;;;;;;;;;;4994070;28;19910;-47
2024/03/28 14:56:25;;;;;;;;;;;;;;;;;;4993989;28;19914;-46
2024/03/28 14:58:51;;;;;;;;;;;;;;;;;;4993979;28;19921;-43
2024/03/28 15:01:17;;;;;;;;;;;;;;;;;;4993376;28;19917;-47
2024/03/28 15:03:44;;;;;;;;;;;;;;;;;;4975778;28;20001;-46
2024/03/28 15:06:10;;;;;;;;;;;;;;;;;;4993470;28;20400;-44
2024/03/28 15:08:36;;;;;;;;;;;;;;;;;;4993679;28;20076;-44
2024/03/28 15:11:02;;;;;;;;;;;;;;;;;;4993345;28;19968;-44
2024/03/28 15:13:27;;;;;;;;;;;;;;;;;;4993743;28;20036;-47
2024/03/28 15:15:54;;;;;;;;;;;;;;;;;;4993459;28;19914;-45
2024/03/28 15:18:20;;;;;;;;;;;;;;;;;;4993047;28;20005;-43
2024/03/28 15:20:46;;;;;;;;;;;;;;;;;;4993191;28;20017;-44
2024/03/28 15:23:12;;;;;;;;;;;;;;;;;;4993329;28;19929;-43
2024/03/28 15:25:38;;;;;;;;;;;;;;;;;;4992490;28;19916;-42
2024/03/28 15:28:04;;;;;;;;;;;;;;;;;;4993211;28;19996;-43
2024/03/28 15:30:30;;;;;;;;;;;;;;;;;;4993342;28;19918;-43
2024/03/28 15:32:55;;;;;;;;;;;;;;;;;;4992609;28;19913;-44
2024/03/28 15:35:22;;;;;;;;;;;;;;;;;;4993079;28;19914;-44
2024/03/28 15:37:48;;;;;;;;;;;;;;;;;;4992812;28;19910;-43
2024/03/28 15:40:14;;;;;;;;;;;;;;;;;;4992804;28;19913;-43
2024/03/28 15:42:40;;;;;;;;;;;;;;;;;;4992957;28;20268;-44
2024/03/28 15:45:06;;;;;;;;;;;;;;;;;;4993112;28;19910;-43
2024/03/28 15:47:33;;;;;;;;;;;;;;;;;;4993126;28;19910;-43
2024/03/28 15:49:59;;;;;;;;;;;;;;;;;;4993127;28;19917;-42
2024/03/28 15:52:25;;;;;;;;;;;;;;;;;;4992479;28;19910;-44
2024/03/28 15:54:50;;;;;;;;;;;;;;;;;;4992870;28;19909;-42
2024/03/28 15:57:17;;;;;;;;;;;;;;;;;;4992245;28;20384;-44
2024/03/28 15:59:43;;;;;;;;;;;;;;;;;;4992749;28;19910;-42
2024/03/28 16:02:09;;;;;;;;;;;;;;;;;;4992381;28;19918;-42
2024/03/28 16:04:35;;;;;;;;;;;;;;;;;;4991152;28;19914;-44
2024/03/28 16:07:01;;;;;;;;;;;;;;;;;;4987766;28;19918;-43
2024/03/28 16:09:27;;;;;;;;;;;;;;;;;;4990691;28;20012;-43
2024/03/28 16:11:53;;;;;;;;;;;;;;;;;;4990766;28;20036;-43
2024/03/28 16:14:19;;;;;;;;;;;;;;;;;;4990700;28;19918;-42
2024/03/28 16:16:45;;;;;;;;;;;;;;;;;;4990813;28;19910;-43
2024/03/28 16:19:16;;;;;;;;;;;;;;;;;;4990523;28;19953;-42
2024/03/28 16:21:42;;;;;;;;;;;;;;;;;;4990314;28;19914;-44
2024/03/28 16:24:09;;;;;;;;;;;;;;;;;;4990681;28;19910;-43
2024/03/28 16:26:35;;;;;;;;;;;;;;;;;;4991316;28;19936;-43
2024/03/28 16:29:01;;;;;;;;;;;;;;;;;;4991645;28;20431;-43
2024/03/28 16:31:27;;;;;;;;;;;;;;;;;;4989640;28;20307;-43
2024/03/28 16:33:52;;;;;;;;;;;;;;;;;;4990298;28;19965;-42
2024/03/28 16:36:18;;;;;;;;;;;;;;;;;;4990086;28;20366;-44
2024/03/28 16:38:44;;;;;;;;;;;;;;;;;;4990705;28;19917;-42
2024/03/28 16:41:10;;;;;;;;;;;;;;;;;;4990614;28;20393;-43
2024/03/28 16:43:36;;;;;;;;;;;;;;;;;;4991247;28;20065;-43
2024/03/28 16:46:02;;;;;;;;;;;;;;;;;;4991661;28;19916;-45
2024/03/28 16:48:30;;;;;;;;;;;;;;;;;;4991927;28;19965;-44
2024/03/28 16:50:56;;;;;;;;;;;;;;;;;;4992078;28;19918;-43
2024/03/28 16:53:21;;;;;;;;;;;;;;;;;;4992440;28;19937;-44
2024/03/28 16:55:47;;;;;;;;;;;;;;;;;;4992121;28;19916;-43
2024/03/28 16:58:13;;;;;;;;;;;;;;;;;;4991867;28;19913;-43
2024/03/28 17:00:41;;;;;;;;;;;;;;;;;;4991296;28;19913;-44
2024/03/28 17:03:07;;;;;;;;;;;;;;;;;;4991300;28;19993;-43
2024/03/28 17:05:33;;;;;;;;;;;;;;;;;;4991188;28;20008;-43
2024/03/28 17:08:03;;;;;;;;;;;;;;;;;;4991370;28;19997;-43
2024/03/28 17:10:29;;;;;;;;;;;;;;;;;;4991383;28;19910;-45
2024/03/28 17:12:55;;;;;;;;;;;;;;;;;;4990875;28;19921;-46
2024/03/28 17:15:20;;;;;;;;;;;;;;;;;;4991016;28;19921;-43
2024/03/28 17:17:46;;;;;;;;;;;;;;;;;;4991176;28;19910;-43
2024/03/28 17:20:12;;;;;;;;;;;;;;;;;;4991163;28;19913;-43
2024/03/28 17:22:38;;;;;;;;;;;;;;;;;;4991301;28;20339;-43
2024/03/28 17:25:04;;;;;;;;;;;;;;;;;;4991560;28;19910;-44
2024/03/28 17:27:30;;;;;;;;;;;;;;;;;;4991056;28;20414;-44
2024/03/28 17:29:56;;;;;;;;;;;;;;;;;;4991208;28;19914;-43
2024/03/28 17:32:21;;;;;;;;;;;;;;;;;;4991027;28;20076;-43
2024/03/28 17:34:47;;;;;;;;;;;;;;;;;;4988951;28;19921;-47
2024/03/28 17:37:13;;;;;;;;;;;;;;;;;;4989430;28;19921;-42
2024/03/28 17:39:39;;;;;;;;;;;;;;;;;;4990047;28;19985;-43
2024/03/28 17:42:05;;;;;;;;;;;;;;;;;;4992262;28;19910;-43
2024/03/28 17:44:31;;;;;;;;;;;;;;;;;;4990076;28;19913;-43
2024/03/28 17:46:57;;;;;;;;;;;;;;;;;;4990253;28;19910;-43
2024/03/28 17:49:23;;;;;;;;;;;;;;;;;;4994537;28;19914;-43
2024/03/28 17:51:49;;;;;;;;;;;;;;;;;;4994779;28;19953;-42
2024/03/28 17:54:15;;;;;;;;;;;;;;;;;;4993605;28;19913;-42
2024/03/28 17:56:41;;;;;;;;;;;;;;;;;;4994355;28;19914;-42
2024/03/28 17:59:07;;;;;;;;;;;;;;;;;;4990427;28;19984;-42
2024/03/28 18:01:34;;;;;;;;;;;;;;;;;;4991914;28;20457;-42
2024/03/28 18:04:01;;;;;;;;;;;;;;;;;;4996635;28;20013;-42
2024/03/28 18:06:27;;;;;;;;;;;;;;;;;;4987434;28;19914;-42
2024/03/28 18:08:53;;;;;;;;;;;;;;;;;;4986501;28;19918;-42
2024/03/28 18:11:19;;;;;;;;;;;;;;;;;;4990234;28;19923;-43
2024/03/28 18:13:46;;;;;;;;;;;;;;;;;;4993732;28;19921;-41
2024/03/28 18:16:13;;;;;;;;;;;;;;;;;;4991040;28;19914;-41
2024/03/28 18:18:39;;;;;;;;;;;;;;;;;;4989722;28;19989;-42
2024/03/28 18:21:05;;;;;;;;;;;;;;;;;;4991521;28;20371;-44
2024/03/28 18:23:31;;;;;;;;;;;;;;;;;;4992578;28;19913;-41
2024/03/28 18:25:56;;;;;;;;;;;;;;;;;;4992914;28;20296;-42
2024/03/28 18:28:22;;;;;;;;;;;;;;;;;;4991991;28;19914;-43
2024/03/28 18:30:48;;;;;;;;;;;;;;;;;;4992782;28;19918;-43
2024/03/28 18:33:14;;;;;;;;;;;;;;;;;;4992552;28;19949;-44
2024/03/28 18:35:40;;;;;;;;;;;;;;;;;;4992121;28;20312;-42
2024/03/28 18:38:09;;;;;;;;;;;;;;;;;;4992444;28;19913;-42
2024/03/28 18:40:35;;;;;;;;;;;;;;;;;;4992593;28;19917;-45
2024/03/28 18:43:02;;;;;;;;;;;;;;;;;;4991894;28;19917;-43
2024/03/28 18:45:28;;;;;;;;;;;;;;;;;;4992801;28;19959;-42
2024/03/28 18:47:54;;;;;;;;;;;;;;;;;;4992906;28;19910;-42
2024/03/28 18:50:20;;;;;;;;;;;;;;;;;;4986203;28;19918;-43
2024/03/28 18:52:45;;;;;;;;;;;;;;;;;;4991570;28;20004;-42
2024/03/28 18:55:11;;;;;;;;;;;;;;;;;;4991736;28;19961;-42
2024/03/28 18:57:37;;;;;;;;;;;;;;;;;;4989288;28;19937;-42
2024/03/28 19:00:03;;;;;;;;;;;;;;;;;;4990708;28;19933;-45
2024/03/28 19:02:29;;;;;;;;;;;;;;;;;;4990632;28;20040;-45
2024/03/28 19:04:55;;;;;;;;;;;;;;;;;;4991723;28;20447;-42
2024/03/28 19:07:21;;;;;;;;;;;;;;;;;;4986555;28;19914;-42
2024/03/28 19:09:47;;;;;;;;;;;;;;;;;;4992173;28;19913;-42
2024/03/28 19:12:14;;;;;;;;;;;;;;;;;;4990666;28;19914;-42
2024/03/28 19:14:41;;;;;;;;;;;;;;;;;;4991099;28;19914;-43
2024/03/28 19:17:07;;;;;;;;;;;;;;;;;;4991075;28;19914;-41
2024/03/28 19:19:33;;;;;;;;;;;;;;;;;;4962373;28;20346;-42
2024/03/28 19:22:00;;;;;;;;;;;;;;;;;;4981826;28;19917;-42
2024/03/28 19:24:26;;;;;;;;;;;;;;;;;;4985888;28;19914;-42
2024/03/28 19:26:52;;;;;;;;;;;;;;;;;;4989906;28;19920;-42
2024/03/28 19:29:18;;;;;;;;;;;;;;;;;;4990079;28;20438;-42
2024/03/28 19:31:44;;;;;;;;;;;;;;;;;;4987661;28;20186;-44
2024/03/28 19:34:10;;;;;;;;;;;;;;;;;;4986703;28;20379;-42
2024/03/28 19:36:37;;;;;;;;;;;;;;;;;;4990828;28;19960;-44
2024/03/28 19:39:04;;;;;;;;;;;;;;;;;;4984089;28;19922;-42
2024/03/28 19:41:30;;;;;;;;;;;;;;;;;;4989227;28;20012;-42
2024/03/28 19:43:56;;;;;;;;;;;;;;;;;;4991230;28;20364;-42
2024/03/28 19:46:22;;;;;;;;;;;;;;;;;;4992262;28;19910;-42
2024/03/28 19:48:48;;;;;;;;;;;;;;;;;;4989695;28;19945;-42
2024/03/28 19:51:14;;;;;;;;;;;;;;;;;;4988939;28;19914;-42
2024/03/28 19:53:40;;;;;;;;;;;;;;;;;;4991210;28;19922;-43
2024/03/28 19:56:06;;;;;;;;;;;;;;;;;;4990047;28;19914;-42
2024/03/28 19:58:32;;;;;;;;;;;;;;;;;;4992257;28;19933;-43
2024/03/28 20:00:58;;;;;;;;;;;;;;;;;;4967140;28;19964;-44
2024/03/28 20:03:23;;;;;;;;;;;;;;;;;;4990176;28;19926;-42
2024/03/28 20:05:49;;;;;;;;;;;;;;;;;;4991158;28;19956;-43
2024/03/28 20:08:15;;;;;;;;;;;;;;;;;;4989189;28;19920;-42
2024/03/28 20:10:41;;;;;;;;;;;;;;;;;;4988505;28;19913;-43
2024/03/28 20:13:08;;;;;;;;;;;;;;;;;;4985703;28;20001;-42
2024/03/28 20:15:34;;;;;;;;;;;;;;;;;;4998271;28;20530;-42
2024/03/28 20:18:00;;;;;;;;;;;;;;;;;;4982493;28;19918;-42
2024/03/28 20:20:27;;;;;;;;;;;;;;;;;;4990384;28;20029;-42
2024/03/28 20:22:53;;;;;;;;;;;;;;;;;;4989593;28;19968;-42
2024/03/28 20:25:19;;;;;;;;;;;;;;;;;;4988576;28;20392;-42
2024/03/28 20:27:45;;;;;;;;;;;;;;;;;;4988770;28;19914;-43
2024/03/28 20:30:11;;;;;;;;;;;;;;;;;;4989329;28;19910;-42
2024/03/28 20:32:38;;;;;;;;;;;;;;;;;;4990817;28;19914;-43
2024/03/28 20:35:05;;;;;;;;;;;;;;;;;;4989615;28;19914;-42
2024/03/28 20:37:30;;;;;;;;;;;;;;;;;;4991251;28;20376;-43
2024/03/28 20:39:58;;;;;;;;;;;;;;;;;;4987838;28;20008;-42
2024/03/28 20:42:23;;;;;;;;;;;;;;;;;;4989045;28;20285;-42
2024/03/28 20:44:49;;;;;;;;;;;;;;;;;;4990103;28;19910;-43
2024/03/28 20:47:15;;;;;;;;;;;;;;;;;;4990176;28;19913;-43
2024/03/28 20:49:41;;;;;;;;;;;;;;;;;;4991300;28;19909;-43
2024/03/28 20:52:07;;;;;;;;;;;;;;;;;;4988158;28;19933;-43
2024/03/28 20:54:33;;;;;;;;;;;;;;;;;;4986975;28;19922;-42
2024/03/28 20:56:59;;;;;;;;;;;;;;;;;;4991867;28;19972;-42
2024/03/28 20:59:24;;;;;;;;;;;;;;;;;;5006764;28;19950;-43
2024/03/28 21:01:50;;;;;;;;;;;;;;;;;;4990669;28;20386;-42
2024/03/28 21:04:16;;;;;;;;;;;;;;;;;;4987236;28;19928;-43
2024/03/28 21:10:43;;;;;;;;;;;;;;;;;;4988646;28;19920;-42
2024/03/28 21:12:22;;;;;;;;;;;;;;;;;;4971164;28;20206;-43
2024/03/28 21:14:49;;;;;;;;;;;;;;;;;;4987638;28;19972;-42
2024/03/28 21:17:15;;;;;;;;;;;;;;;;;;4988135;28;19913;-43
2024/03/28 21:19:42;;;;;;;;;;;;;;;;;;4987785;28;20013;-43
2024/03/28 21:22:10;;;;;;;;;;;;;;;;;;4988326;28;19918;-42
2024/03/28 21:24:36;;;;;;;;;;;;;;;;;;4986913;28;19924;-42
2024/03/28 21:27:02;;;;;;;;;;;;;;;;;;4990238;28;19910;-42
2024/03/28 21:29:27;;;;;;;;;;;;;;;;;;4990605;28;20074;-43
2024/03/28 21:31:53;;;;;;;;;;;;;;;;;;4987498;28;20131;-42
2024/03/28 21:34:19;;;;;;;;;;;;;;;;;;4988273;28;20012;-42
2024/03/28 21:36:45;;;;;;;;;;;;;;;;;;4988305;28;19980;-42
2024/03/28 21:39:15;;;;;;;;;;;;;;;;;;4988471;28;19921;-44
2024/03/28 21:41:40;;;;;;;;;;;;;;;;;;4986930;28;19922;-44
2024/03/28 21:44:06;;;;;;;;;;;;;;;;;;4989297;28;19918;-42
2024/03/28 21:46:32;;;;;;;;;;;;;;;;;;4988499;28;19914;-43
2024/03/28 21:48:58;;;;;;;;;;;;;;;;;;4987930;28;20453;-45
2024/03/28 21:51:24;;;;;;;;;;;;;;;;;;4992301;28;19913;-44
2024/03/28 21:53:50;;;;;;;;;;;;;;;;;;4984736;28;19913;-43
2024/03/28 21:56:19;;;;;;;;;;;;;;;;;;4988343;28;19936;-43
2024/03/28 21:58:45;;;;;;;;;;;;;;;;;;4988421;28;19921;-46
2024/03/28 22:01:11;;;;;;;;;;;;;;;;;;4989193;28;19918;-42
2024/03/28 22:03:37;;;;;;;;;;;;;;;;;;4989621;28;20008;-42
2024/03/28 22:06:05;;;;;;;;;;;;;;;;;;4987181;28;19914;-42
2024/03/28 22:08:31;;;;;;;;;;;;;;;;;;4989924;28;19948;-42
2024/03/28 22:10:59;;;;;;;;;;;;;;;;;;4963299;28;21138;-43
2024/03/28 22:13:26;;;;;;;;;;;;;;;;;;4988972;28;19918;-42
2024/03/28 22:15:52;;;;;;;;;;;;;;;;;;4988401;28;20410;-42
2024/03/28 22:18:18;;;;;;;;;;;;;;;;;;4989290;28;19922;-46
2024/03/28 22:20:44;;;;;;;;;;;;;;;;;;4988222;28;20020;-42
2024/03/28 22:23:10;;;;;;;;;;;;;;;;;;4987109;28;19993;-44
2024/03/28 22:25:37;;;;;;;;;;;;;;;;;;4972566;28;19910;-45
2024/03/28 22:28:03;;;;;;;;;;;;;;;;;;4987980;28;19914;-42
2024/03/28 22:30:29;;;;;;;;;;;;;;;;;;4988741;28;19937;-41
2024/03/28 22:32:55;;;;;;;;;;;;;;;;;;4977845;28;20029;-44
2024/03/28 22:35:22;;;;;;;;;;;;;;;;;;4993377;28;19990;-42
2024/03/28 22:37:48;;;;;;;;;;;;;;;;;;4993220;28;19949;-42
2024/03/28 22:40:15;;;;;;;;;;;;;;;;;;4992741;28;19960;-43
2024/03/28 22:42:41;;;;;;;;;;;;;;;;;;4993469;28;19914;-43